createdAt,value
2018-06-18T00:00:27.256Z,78.27
2018-06-18T00:02:54.599Z,79.42
2018-06-18T00:05:22.198Z,79.10
2018-06-18T00:07:50.393Z,79.04
2018-06-18T00:10:17.999Z,76.25
2018-06-18T00:12:45.152Z,74.92
2018-06-18T00:15:12.276Z,77.23
2018-06-18T00:17:39.436Z,79.18
2018-06-18T00:20:06.599Z,80.39
2018-06-18T00:22:33.771Z,80.96
2018-06-18T00:25:00.899Z,81.45
2018-06-18T00:27:28.080Z,81.41
2018-06-18T00:29:55.389Z,79.08
2018-06-18T00:32:22.820Z,82.17
2018-06-18T00:34:50.309Z,82.45
2018-06-18T00:37:17.717Z,83.06
2018-06-18T00:39:44.891Z,82.59
2018-06-18T00:42:13.200Z,84.16
2018-06-18T00:44:40.299Z,82.97
2018-06-18T00:47:07.455Z,81.21
2018-06-18T00:49:34.719Z,83.42
2018-06-18T00:52:01.922Z,83.89
2018-06-18T00:54:29.063Z,84.16
2018-06-18T00:56:56.393Z,83.17
2018-06-18T00:59:23.847Z,84.20
2018-06-18T01:01:51.432Z,84.30
2018-06-18T01:04:18.891Z,84.37
2018-06-18T01:06:46.029Z,84.77
2018-06-18T01:09:13.216Z,83.65
2018-06-18T01:11:40.366Z,80.76
2018-06-18T01:14:07.493Z,82.33
2018-06-18T01:16:34.605Z,83.35
2018-06-18T01:19:01.758Z,82.49
2018-06-18T01:21:28.953Z,82.39
2018-06-18T01:24:03.416Z,83.24
2018-06-18T01:26:30.560Z,81.84
2018-06-18T01:28:57.998Z,81.21
2018-06-18T01:31:25.378Z,80.69
2018-06-18T01:33:55.109Z,82.58
2018-06-18T01:36:22.739Z,82.34
2018-06-18T01:38:50.434Z,85.34
2018-06-18T01:41:17.697Z,85.90
2018-06-18T01:43:44.835Z,85.28
2018-06-18T01:46:11.994Z,86.48
2018-06-18T01:48:39.120Z,86.62
2018-06-18T01:51:06.231Z,87.78
2018-06-18T01:53:33.391Z,88.33
2018-06-18T01:56:00.501Z,87.11
2018-06-18T01:58:27.853Z,87.86
2018-06-18T02:00:55.192Z,86.67
2018-06-18T02:03:22.883Z,86.57
2018-06-18T02:05:50.787Z,85.94
2018-06-18T02:08:18.024Z,84.78
2018-06-18T02:10:45.309Z,84.01
2018-06-18T02:13:12.452Z,84.79
2018-06-18T02:15:39.625Z,84.50
2018-06-18T02:18:06.800Z,85.58
2018-06-18T02:20:34.001Z,85.55
2018-06-18T02:23:01.179Z,82.34
2018-06-18T02:25:28.407Z,84.95
2018-06-18T02:28:01.368Z,85.37
2018-06-18T02:30:34.263Z,85.87
2018-06-18T02:33:07.369Z,86.20
2018-06-18T02:35:40.181Z,87.33
2018-06-18T02:40:15.349Z,88.31
2018-06-18T02:42:42.533Z,87.49
2018-06-18T02:45:09.682Z,88.13
2018-06-18T02:47:36.841Z,88.78
2018-06-18T02:50:04.001Z,88.68
2018-06-18T02:52:31.169Z,87.17
2018-06-18T02:54:59.414Z,87.80
2018-06-18T02:57:26.674Z,88.26
2018-06-18T02:59:53.984Z,86.89
2018-06-18T03:02:21.789Z,84.65
2018-06-18T03:04:49.027Z,86.00
2018-06-18T03:07:16.217Z,87.20
2018-06-18T03:09:43.394Z,84.93
2018-06-18T03:12:10.517Z,85.02
2018-06-18T03:14:37.660Z,85.91
2018-06-18T03:17:04.808Z,85.66
2018-06-18T03:19:37.478Z,87.47
2018-06-18T03:22:10.408Z,85.98
2018-06-18T03:24:43.157Z,87.26
2018-06-18T03:27:16.128Z,88.08
2018-06-18T03:29:43.247Z,87.97
2018-06-18T03:32:15.420Z,88.27
2018-06-18T03:34:42.871Z,88.57
2018-06-18T03:37:12.034Z,88.53
2018-06-18T03:39:39.216Z,88.60
2018-06-18T03:42:06.550Z,86.23
2018-06-18T03:44:42.848Z,85.11
2018-06-18T03:47:31.007Z,84.56
2018-06-18T03:49:58.299Z,83.60
2018-06-18T03:52:25.625Z,87.23
2018-06-18T03:54:58.381Z,86.42
2018-06-18T03:57:25.652Z,85.92
2018-06-18T03:59:52.849Z,85.98
2018-06-18T04:03:34.578Z,84.25
2018-06-18T04:06:07.826Z,86.32
2018-06-18T04:08:35.592Z,86.11
2018-06-18T04:11:08.639Z,83.87
2018-06-18T04:13:36.175Z,84.35
2018-06-18T04:16:05.537Z,83.24
2018-06-18T04:18:37.794Z,84.21
2018-06-18T04:21:05.739Z,86.99
2018-06-18T04:23:33.077Z,87.12
2018-06-18T04:26:00.328Z,84.57
2018-06-18T04:28:27.812Z,85.88
2018-06-18T04:30:55.051Z,82.58
2018-06-18T04:33:24.977Z,80.64
2018-06-18T04:35:52.107Z,76.03
2018-06-18T04:38:19.308Z,75.17
2018-06-18T04:40:46.720Z,74.53
2018-06-18T04:43:19.748Z,72.01
2018-06-18T04:45:51.615Z,70.82
2018-06-18T04:48:24.706Z,72.40
2018-06-18T04:50:59.484Z,69.67
2018-06-18T04:53:26.648Z,69.95
2018-06-18T04:55:53.787Z,70.24
2018-06-18T04:58:20.982Z,68.72
2018-06-18T05:00:57.788Z,68.52
2018-06-18T05:03:25.139Z,69.16
2018-06-18T05:05:53.477Z,69.24
2018-06-18T05:08:43.093Z,69.22
2018-06-18T05:11:10.267Z,68.95
2018-06-18T05:13:37.438Z,68.65
2018-06-18T05:16:05.523Z,70.95
2018-06-18T05:18:32.645Z,69.91
2018-06-18T05:21:02.778Z,68.06
2018-06-18T05:23:40.287Z,66.59
2018-06-18T05:26:08.654Z,69.75
2018-06-18T05:28:35.929Z,67.37
2018-06-18T05:31:03.361Z,69.37
2018-06-18T05:33:30.694Z,68.99
2018-06-18T05:35:58.101Z,69.03
2018-06-18T05:38:29.891Z,71.22
2018-06-18T05:40:58.260Z,69.66
2018-06-18T05:43:28.699Z,71.62
2018-06-18T05:45:57.344Z,73.10
2018-06-18T05:48:26.773Z,69.30
2018-06-18T05:50:58.388Z,70.02
2018-06-18T05:53:28.213Z,69.84
2018-06-18T05:55:58.121Z,69.47
2018-06-18T05:58:27.040Z,69.10
2018-06-18T06:00:56.160Z,68.91
2018-06-18T06:03:29.009Z,67.39
2018-06-18T06:05:56.867Z,70.38
2018-06-18T06:08:26.002Z,69.33
2018-06-18T06:10:53.227Z,65.94
2018-06-18T06:13:20.529Z,67.38
2018-06-18T06:15:47.656Z,65.26
2018-06-18T06:18:15.465Z,65.67
2018-06-18T06:21:08.126Z,66.48
2018-06-18T06:23:35.512Z,65.50
2018-06-18T06:26:03.243Z,67.33
2018-06-18T06:28:30.601Z,65.53
2018-06-18T06:30:57.918Z,66.11
2018-06-18T06:33:25.961Z,65.52
2018-06-18T06:35:54.387Z,63.09
2018-06-18T06:38:21.606Z,64.72
2018-06-18T06:40:48.805Z,63.16
2018-06-18T06:43:16.008Z,65.28
2018-06-18T06:45:43.232Z,61.60
2018-06-18T06:48:10.471Z,61.35
2018-06-18T06:50:37.771Z,62.31
2018-06-18T06:53:05.136Z,66.29
2018-06-18T06:55:32.822Z,60.95
2018-06-18T06:58:00.348Z,61.31
2018-06-18T07:00:27.757Z,62.32
2018-06-18T07:02:55.965Z,59.80
2018-06-18T07:05:23.252Z,60.86
2018-06-18T07:07:51.112Z,58.82
2018-06-18T07:10:18.812Z,58.58
2018-06-18T07:12:54.704Z,56.87
2018-06-18T07:18:00.673Z,55.35
2018-06-18T07:20:28.824Z,54.98
2018-06-18T07:22:56.434Z,54.92
2018-06-18T07:25:23.674Z,55.25
2018-06-18T07:27:50.857Z,57.14
2018-06-18T07:30:20.001Z,57.46
2018-06-18T07:32:52.812Z,53.39
2018-06-18T07:35:21.267Z,53.14
2018-06-18T07:37:48.733Z,50.85
2018-06-18T07:40:17.573Z,54.06
2018-06-18T07:42:52.572Z,56.78
2018-06-18T07:45:26.432Z,53.54
2018-06-18T07:47:54.094Z,53.03
2018-06-18T07:50:22.258Z,53.38
2018-06-18T07:52:49.883Z,53.10
2018-06-18T07:55:17.276Z,54.34
2018-06-18T07:57:47.161Z,53.04
2018-06-18T08:00:19.650Z,52.45
2018-06-18T08:02:52.417Z,54.54
2018-06-18T08:05:23.757Z,52.39
2018-06-18T08:07:55.071Z,53.20
2018-06-18T08:10:23.633Z,52.70
2018-06-18T08:12:53.602Z,52.51
2018-06-18T08:15:21.006Z,51.00
2018-06-18T08:17:49.085Z,53.46
2018-06-18T08:20:17.763Z,50.92
2018-06-18T08:22:51.863Z,51.00
2018-06-18T08:25:19.739Z,51.66
2018-06-18T08:27:51.301Z,52.39
2018-06-18T08:30:19.200Z,49.29
2018-06-18T08:32:51.644Z,50.37
2018-06-18T08:35:23.903Z,50.88
2018-06-18T08:37:53.306Z,50.95
2018-06-18T08:40:20.564Z,55.27
2018-06-18T08:42:52.244Z,52.54
2018-06-18T08:45:19.408Z,48.83
2018-06-18T08:47:47.329Z,48.09
2018-06-18T08:50:20.454Z,48.11
2018-06-18T08:52:54.790Z,49.71
2018-06-18T08:55:27.730Z,49.25
2018-06-18T08:58:01.818Z,51.26
2018-06-18T09:00:37.402Z,55.36
2018-06-18T09:03:05.128Z,54.43
2018-06-18T09:05:38.049Z,49.53
2018-06-18T09:08:11.161Z,49.03
2018-06-18T09:10:38.325Z,48.16
2018-06-18T09:13:05.558Z,45.33
2018-06-18T09:15:32.761Z,47.74
2018-06-18T09:18:00.027Z,49.20
2018-06-18T09:20:27.240Z,44.05
2018-06-18T09:22:54.368Z,44.45
2018-06-18T09:25:21.626Z,46.33
2018-06-18T09:27:48.792Z,50.50
2018-06-18T09:30:16.058Z,46.94
2018-06-18T09:32:43.479Z,48.93
2018-06-18T09:35:12.237Z,45.78
2018-06-18T09:37:43.244Z,39.31
2018-06-18T09:40:11.284Z,39.66
2018-06-18T09:42:38.457Z,39.75
2018-06-18T09:45:05.836Z,41.53
2018-06-18T09:47:34.012Z,39.33
2018-06-18T09:50:07.065Z,37.86
2018-06-18T09:52:40.176Z,40.31
2018-06-18T09:55:13.096Z,37.79
2018-06-18T09:57:46.008Z,36.40
2018-06-18T10:00:27.658Z,38.89
2018-06-18T10:02:55.444Z,38.04
2018-06-18T10:05:22.650Z,36.34
2018-06-18T10:07:51.988Z,40.50
2018-06-18T10:10:19.269Z,38.08
2018-06-18T10:12:46.511Z,35.68
2018-06-18T10:15:13.853Z,37.09
2018-06-18T10:17:41.300Z,36.64
2018-06-18T10:20:09.552Z,35.75
2018-06-18T10:22:36.769Z,36.70
2018-06-18T10:25:03.954Z,42.52
2018-06-18T10:27:31.091Z,37.77
2018-06-18T10:29:58.327Z,38.33
2018-06-18T10:32:31.160Z,35.56
2018-06-18T10:36:06.697Z,33.62
2018-06-18T10:38:39.713Z,33.55
2018-06-18T10:41:12.789Z,34.25
2018-06-18T10:43:40.074Z,36.34
2018-06-18T10:46:07.301Z,35.33
2018-06-18T10:48:34.609Z,34.57
2018-06-18T10:51:01.989Z,34.08
2018-06-18T10:53:29.156Z,33.58
2018-06-18T10:55:56.367Z,32.35
2018-06-18T10:58:23.540Z,31.79
2018-06-18T11:00:59.302Z,34.77
2018-06-18T11:03:26.467Z,31.56
2018-06-18T11:05:59.957Z,29.43
2018-06-18T11:08:27.509Z,32.32
2018-06-18T11:10:54.721Z,29.88
2018-06-18T11:13:22.051Z,31.17
2018-06-18T11:15:49.233Z,28.52
2018-06-18T11:18:22.049Z,27.23
2018-06-18T11:20:54.952Z,29.63
2018-06-18T11:23:27.876Z,28.01
2018-06-18T11:26:00.657Z,30.57
2018-06-18T11:28:27.985Z,29.99
2018-06-18T11:30:55.060Z,31.22
2018-06-18T11:33:22.173Z,32.08
2018-06-18T11:35:49.352Z,35.13
2018-06-18T11:38:16.658Z,35.15
2018-06-18T11:40:45.301Z,35.97
2018-06-18T11:43:13.723Z,39.46
2018-06-18T11:45:42.584Z,38.15
2018-06-18T11:48:13.700Z,37.84
2018-06-18T11:50:41.296Z,38.05
2018-06-18T11:53:08.472Z,37.77
2018-06-18T11:55:36.079Z,39.93
2018-06-18T11:58:03.723Z,40.50
2018-06-18T12:00:36.825Z,40.80
2018-06-18T12:03:09.720Z,40.43
2018-06-18T12:05:42.661Z,40.28
2018-06-18T12:08:15.668Z,39.72
2018-06-18T12:10:43.205Z,39.85
2018-06-18T12:13:10.415Z,41.69
2018-06-18T12:15:37.642Z,40.33
2018-06-18T12:18:04.973Z,39.51
2018-06-18T12:20:32.188Z,35.82
2018-06-18T12:22:59.364Z,37.54
2018-06-18T12:25:26.573Z,35.71
2018-06-18T12:27:53.737Z,37.92
2018-06-18T12:30:21.035Z,37.36
2018-06-18T12:32:50.430Z,32.39
2018-06-18T12:35:17.943Z,33.07
2018-06-18T12:37:45.338Z,33.90
2018-06-18T12:40:12.701Z,36.29
2018-06-18T12:42:40.041Z,36.22
2018-06-18T12:45:14.379Z,34.80
2018-06-18T12:47:47.346Z,35.80
2018-06-18T12:50:20.308Z,33.35
2018-06-18T12:52:53.361Z,31.67
2018-06-18T12:55:26.417Z,32.24
2018-06-18T12:57:54.038Z,32.57
2018-06-18T13:00:21.164Z,33.54
2018-06-18T13:02:52.475Z,29.93
2018-06-18T13:05:20.547Z,31.63
2018-06-18T13:07:49.282Z,32.13
2018-06-18T13:10:18.395Z,31.85
2018-06-18T13:12:46.364Z,31.21
2018-06-18T13:15:14.215Z,31.67
2018-06-18T13:17:41.640Z,31.72
2018-06-18T13:20:14.483Z,31.97
2018-06-18T13:22:43.142Z,36.81
2018-06-18T13:25:10.399Z,31.10
2018-06-18T13:27:43.362Z,32.88
2018-06-18T13:30:10.595Z,34.04
2018-06-18T13:32:37.771Z,33.67
2018-06-18T13:35:05.110Z,32.41
2018-06-18T13:37:38.024Z,29.38
2018-06-18T13:40:10.803Z,32.33
2018-06-18T13:42:43.752Z,30.11
2018-06-18T13:45:16.613Z,32.26
2018-06-18T13:47:49.552Z,32.85
2018-06-18T13:50:25.321Z,29.17
2018-06-18T13:52:53.229Z,29.20
2018-06-18T13:55:24.487Z,29.29
2018-06-18T13:57:51.690Z,33.99
2018-06-18T14:00:19.053Z,30.23
2018-06-18T14:02:46.387Z,28.79
2018-06-18T14:05:13.748Z,31.36
2018-06-18T14:07:41.162Z,30.34
2018-06-18T14:10:08.981Z,32.92
2018-06-18T14:12:36.438Z,32.01
2018-06-18T14:15:06.360Z,32.99
2018-06-18T14:17:33.675Z,28.60
2018-06-18T14:20:06.890Z,31.97
2018-06-18T14:22:34.096Z,31.05
2018-06-18T14:25:01.254Z,30.09
2018-06-18T14:27:28.647Z,30.02
2018-06-18T14:30:03.045Z,32.49
2018-06-18T14:33:35.820Z,31.62
2018-06-18T14:36:09.133Z,34.41
2018-06-18T14:38:42.141Z,30.85
2018-06-18T14:41:09.388Z,38.26
2018-06-18T14:43:36.816Z,36.76
2018-06-18T14:46:04.584Z,34.96
2018-06-18T14:48:33.130Z,32.98
2018-06-18T14:51:00.502Z,32.85
2018-06-18T14:53:28.553Z,30.57
2018-06-18T14:56:09.046Z,31.58
2018-06-18T14:58:36.397Z,35.99
2018-06-18T15:01:04.100Z,37.08
2018-06-18T15:03:34.084Z,37.91
2018-06-18T15:06:01.744Z,34.15
2018-06-18T15:08:30.120Z,37.31
2018-06-18T15:10:58.561Z,39.91
2018-06-18T15:13:27.247Z,39.31
2018-06-18T15:16:02.424Z,35.59
2018-06-18T15:18:29.707Z,35.68
2018-06-18T15:21:09.216Z,38.78
2018-06-18T15:23:37.745Z,32.77
2018-06-18T15:26:07.794Z,34.36
2018-06-18T15:28:37.585Z,34.23
2018-06-18T15:31:05.014Z,37.51
2018-06-18T15:33:32.318Z,34.83
2018-06-18T15:36:01.472Z,34.54
2018-06-18T15:38:29.912Z,37.68
2018-06-18T15:40:57.280Z,36.40
2018-06-18T15:43:24.754Z,34.76
2018-06-18T15:45:52.196Z,35.71
2018-06-18T15:48:19.883Z,39.00
2018-06-18T15:50:47.089Z,39.04
2018-06-18T15:53:14.283Z,37.96
2018-06-18T15:55:41.652Z,37.68
2018-06-18T15:58:08.894Z,41.14
2018-06-18T16:00:36.048Z,37.00
2018-06-18T16:03:03.268Z,41.69
2018-06-18T16:05:31.518Z,40.85
2018-06-18T16:07:58.751Z,40.54
2018-06-18T16:10:26.157Z,44.23
2018-06-18T16:12:53.774Z,42.40
2018-06-18T16:15:21.559Z,38.49
2018-06-18T16:17:49.172Z,41.24
2018-06-18T16:20:16.338Z,37.28
2018-06-18T16:22:43.474Z,41.78
2018-06-18T16:25:10.593Z,38.18
2018-06-18T16:27:37.860Z,40.38
2018-06-18T16:30:05.035Z,37.60
2018-06-18T16:32:32.224Z,40.46
2018-06-18T16:34:59.529Z,41.35
2018-06-18T16:37:26.943Z,40.70
2018-06-18T16:39:54.388Z,41.60
2018-06-18T16:42:22.036Z,39.47
2018-06-18T16:44:49.352Z,39.52
2018-06-18T16:47:16.543Z,41.93
2018-06-18T16:49:44.120Z,40.04
2018-06-18T16:52:11.256Z,40.09
2018-06-18T16:54:38.402Z,38.87
2018-06-18T16:57:05.601Z,41.48
2018-06-18T16:59:32.921Z,39.72
2018-06-18T17:02:00.085Z,39.73
2018-06-18T17:04:27.568Z,41.04
2018-06-18T17:06:55.188Z,40.95
2018-06-18T17:09:22.791Z,42.31
2018-06-18T17:11:50.628Z,41.61
2018-06-18T17:14:17.818Z,39.38
2018-06-18T17:16:45.085Z,38.87
2018-06-18T17:19:13.347Z,40.10
2018-06-18T17:21:40.939Z,39.55
2018-06-18T17:24:08.156Z,43.34
2018-06-18T17:26:35.348Z,40.89
2018-06-18T17:29:02.489Z,39.76
2018-06-18T17:31:30.645Z,40.58
2018-06-18T17:33:58.643Z,42.12
2018-06-18T17:36:26.261Z,40.52
2018-06-18T17:38:54.659Z,42.44
2018-06-18T17:41:23.096Z,41.21
2018-06-18T17:43:52.405Z,41.67
2018-06-18T17:46:20.417Z,40.77
2018-06-18T17:48:47.894Z,43.19
2018-06-18T17:51:15.240Z,44.67
2018-06-18T17:53:42.425Z,43.11
2018-06-18T17:56:09.852Z,42.07
2018-06-18T17:58:36.984Z,42.77
2018-06-18T18:01:04.121Z,42.24
2018-06-18T18:03:32.012Z,41.92
2018-06-18T18:05:59.928Z,42.80
2018-06-18T18:08:27.751Z,42.15
2018-06-18T18:10:56.035Z,42.62
2018-06-18T18:13:24.898Z,44.37
2018-06-18T18:15:54.794Z,43.62
2018-06-18T18:18:24.207Z,44.92
2018-06-18T18:20:54.215Z,45.29
2018-06-18T18:23:23.618Z,49.01
2018-06-18T18:25:53.094Z,46.18
2018-06-18T18:28:22.811Z,45.84
2018-06-18T18:30:51.939Z,47.88
2018-06-18T18:33:19.831Z,45.79
2018-06-18T18:35:47.696Z,46.72
2018-06-18T18:38:15.424Z,46.94
2018-06-18T18:40:42.555Z,47.65
2018-06-18T18:43:09.816Z,46.62
2018-06-18T18:45:37.775Z,47.46
2018-06-18T18:48:06.559Z,46.45
2018-06-18T18:50:33.889Z,47.22
2018-06-18T18:53:01.445Z,47.26
2018-06-18T18:55:46.115Z,47.54
2018-06-18T18:59:28.819Z,49.06
2018-06-18T19:01:59.792Z,47.96
2018-06-18T19:04:37.731Z,48.50
2018-06-18T19:07:06.835Z,49.72
2018-06-18T19:09:37.185Z,48.21
2018-06-18T19:12:05.069Z,50.50
2018-06-18T19:14:32.813Z,52.32
2018-06-18T19:17:00.274Z,53.13
2018-06-18T19:19:31.865Z,53.57
2018-06-18T19:21:59.090Z,54.14
2018-06-18T19:24:26.364Z,55.83
2018-06-18T19:26:53.568Z,56.82
2018-06-18T19:29:20.758Z,58.17
2018-06-18T19:31:47.912Z,59.04
2018-06-18T19:34:18.536Z,58.34
2018-06-18T19:36:48.807Z,61.87
2018-06-18T19:39:16.046Z,62.11
2018-06-18T19:41:44.530Z,62.82
2018-06-18T19:44:11.745Z,64.43
2018-06-18T19:47:45.163Z,64.29
2018-06-18T19:50:12.436Z,65.92
2018-06-18T19:52:39.760Z,66.34
2018-06-18T19:55:13.066Z,65.96
2018-06-18T19:57:40.366Z,67.49
2018-06-18T20:00:07.664Z,68.34
2018-06-18T20:02:34.852Z,68.43
2018-06-18T20:05:10.139Z,66.70
2018-06-18T20:07:39.557Z,68.02
2018-06-18T20:10:06.732Z,68.34
2018-06-18T20:12:33.978Z,69.41
2018-06-18T20:15:01.199Z,68.78
2018-06-18T20:17:28.420Z,68.44
2018-06-18T20:19:55.631Z,69.37
2018-06-18T20:22:22.919Z,69.82
2018-06-18T20:24:50.406Z,70.52
2018-06-18T20:27:17.552Z,71.54
2018-06-18T20:29:44.825Z,72.16
2018-06-18T20:32:12.119Z,72.54
2018-06-18T20:34:40.203Z,72.85
2018-06-18T20:37:07.564Z,73.36
2018-06-18T20:39:34.793Z,71.74
2018-06-18T20:42:01.988Z,70.80
2018-06-18T20:44:29.218Z,71.03
2018-06-18T20:46:56.384Z,70.81
2018-06-18T20:49:23.509Z,72.71
2018-06-18T20:51:50.695Z,72.93
2018-06-18T20:54:17.864Z,73.32
2018-06-18T20:56:45.102Z,72.90
2018-06-18T20:59:13.229Z,72.34
2018-06-18T21:01:40.467Z,71.73
2018-06-18T21:04:07.773Z,71.96
2018-06-18T21:06:35.117Z,71.74
2018-06-18T21:09:02.404Z,72.03
2018-06-18T21:11:29.671Z,73.36
2018-06-18T21:13:56.973Z,73.73
2018-06-18T21:16:24.141Z,74.45
2018-06-18T21:18:51.368Z,74.49
2018-06-18T21:21:18.597Z,75.59
2018-06-18T21:23:45.980Z,73.96
2018-06-18T21:26:13.271Z,75.75
2018-06-18T21:28:40.431Z,76.04
2018-06-18T21:31:07.609Z,75.63
2018-06-18T21:33:34.777Z,75.98
2018-06-18T21:36:02.148Z,74.52
2018-06-18T21:38:29.297Z,75.04
2018-06-18T21:40:56.399Z,75.89
2018-06-18T21:43:23.616Z,75.30
2018-06-18T21:45:50.751Z,75.63
2018-06-18T21:48:18.047Z,75.68
2018-06-18T21:50:45.256Z,76.39
2018-06-18T21:53:12.406Z,78.45
2018-06-18T21:55:39.526Z,77.41
2018-06-18T21:58:07.251Z,78.14
2018-06-18T22:00:38.120Z,76.11
2018-06-18T22:03:05.474Z,75.58
2018-06-18T22:05:32.652Z,76.15
2018-06-18T22:08:00.145Z,77.11
2018-06-18T22:10:27.272Z,77.75
2018-06-18T22:12:54.627Z,77.76
2018-06-18T22:15:21.776Z,77.30
2018-06-18T22:17:49.039Z,76.44
2018-06-18T22:20:16.304Z,77.50
2018-06-18T22:22:44.525Z,78.34
2018-06-18T22:25:11.805Z,79.36
2018-06-18T22:27:39.016Z,77.77
2018-06-18T22:30:06.117Z,76.09
2018-06-18T22:32:33.238Z,76.36
2018-06-18T22:35:00.408Z,76.69
2018-06-18T22:37:27.821Z,77.08
2018-06-18T22:39:54.965Z,76.96
2018-06-18T22:42:22.136Z,77.15
2018-06-18T22:44:49.320Z,74.75
2018-06-18T22:47:16.455Z,75.02
2018-06-18T22:49:43.850Z,76.08
2018-06-18T22:52:10.972Z,76.22
2018-06-18T22:54:42.988Z,75.14
2018-06-18T22:57:10.153Z,77.32
2018-06-18T22:59:37.337Z,76.03
2018-06-18T23:02:04.898Z,75.15
2018-06-18T23:04:32.077Z,73.33
2018-06-18T23:06:59.209Z,76.18
2018-06-18T23:09:26.399Z,74.43
2018-06-18T23:11:53.643Z,75.09
2018-06-18T23:14:22.495Z,73.45
2018-06-18T23:16:49.795Z,72.89
2018-06-18T23:19:16.911Z,73.38
2018-06-18T23:21:44.103Z,74.22
2018-06-18T23:24:11.275Z,75.21
2018-06-18T23:26:38.599Z,77.10
2018-06-18T23:29:07.930Z,75.28
2018-06-18T23:31:35.124Z,73.95
2018-06-18T23:34:02.261Z,74.90
2018-06-18T23:36:30.372Z,74.69
2018-06-18T23:38:57.701Z,75.49
2018-06-18T23:41:26.839Z,74.54
2018-06-18T23:43:53.948Z,76.46
2018-06-18T23:46:21.497Z,74.17
2018-06-18T23:48:48.675Z,74.50
2018-06-18T23:51:16.212Z,72.82
2018-06-18T23:53:43.400Z,70.98
2018-06-18T23:56:10.654Z,70.43
2018-06-18T23:58:37.809Z,72.82
